الصفحة الرئيسية
METAR-TAF:

METAR-TAF

مطار :

مطار تايبيه سونغشان

تايبيه, تايوان

دائرة عرض: 25-04N, خط طول: 121-33E, ارتفاع: 6 متر

مراقبة الطقس الحالي

تاريخ ووقت الإصدار 46 دقيقة قبل الساعة 19:00UTC
ريح 3 عقدة من الجنوب, الاتجاه يتراوح بين الجنوب/الجنوب الشرقي و الجنوب/الجنوب الغربي
درجة الحرارة 28°درجة مئوية
الرطوبة 79%
ضغط 1003 hPa
الرؤية 10 كم أو أكثر
غيوم قليلة على ارتفاع 2500 قدم

METAR: RCSS 141900Z 18003KT 150V210 9999 FEW025 28/24 Q1003 NOSIG RMK A2963

زمن: 03:46 (19:46 UTC)

توقعات

تاريخ ووقت الإصدار 2ساعات و 46 دقيقة قبل الساعة 17:00UTC
التوقعات صالحة من14 الساعة 18 UTC إلى 15 الساعة 18 UTC
ريح 5 عقدة من الغرب
الرؤية 10 كم أو أكثر
غيوم قليلة على ارتفاع 1500 قدم
غيوم مفككة على ارتفاع 3200 قدم
مؤقت
من 15 الساعة 04 UTC إلى 15 الساعة 10 UTC
ريح 12 عقدة من الغرب
مؤقت
من 15 الساعة 11 UTC إلى 15 الساعة 17 UTC
غيوم قليلة على ارتفاع 1000 قدم
غيوم مفككة على ارتفاع 2000 قدم

TAF: RCSS 141700Z 1418/1518 27005KT 9999 FEW015 BKN032 TEMPO 1504/1510 26012KT TEMPO 1511/1517 FEW010 BKN020

أرصاد الطقس والتوقعات من أكثر من 4000 مطار (تقارير الطقس للمطار METAR والتنبؤ بالطقس بالمطارTAF).

المحطات المتاحة هي النقط الصفراء والحمراء على الخريطة.

حرك المؤشر فوق النقطة لمعرفة اسم المحطة.

ثم انقر لمعرفة أرصاد وتوقعات الطقس.

لتغيير الخارطة: اضغط على الأزرار الخضراء مع رمز الصليب الأسود للتكبير. على الزر الأخضر مع شرطة للتصغير، أو على الأسهم الخضراء للخرائط المجاورة.


METAR-TAF: